sensor_id;sensor_type;location;lat;lon;timestamp;pressure;altitude;pressure_sealevel;temperature;humidity
12991;BME280;6560;57.692;11.958;2023-04-21T00:00:25;102546.06;;;16.56;65.96
12991;BME280;6560;57.692;11.958;2023-04-21T00:02:50;102505.00;;;16.43;64.65
12991;BME280;6560;57.692;11.958;2023-04-21T00:05:16;102536.03;;;16.42;66.23
12991;BME280;6560;57.692;11.958;2023-04-21T00:07:42;102556.66;;;16.45;66.41
12991;BME280;6560;57.692;11.958;2023-04-21T00:10:10;102561.25;;;16.57;64.63
12991;BME280;6560;57.692;11.958;2023-04-21T00:12:36;102517.00;;;16.26;65.93
12991;BME280;6560;57.692;11.958;2023-04-21T00:15:03;102563.22;;;16.16;66.86
12991;BME280;6560;57.692;11.958;2023-04-21T00:17:29;102546.75;;;16.10;65.89
12991;BME280;6560;57.692;11.958;2023-04-21T00:19:56;102500.97;;;15.82;66.64
12991;BME280;6560;57.692;11.958;2023-04-21T00:22:22;102560.22;;;16.33;65.95
12991;BME280;6560;57.692;11.958;2023-04-21T00:24:48;102540.38;;;16.08;66.79
12991;BME280;6560;57.692;11.958;2023-04-21T00:27:13;102524.22;;;15.63;67.31
12991;BME280;6560;57.692;11.958;2023-04-21T00:29:40;102558.06;;;15.76;67.88
12991;BME280;6560;57.692;11.958;2023-04-21T00:32:06;102547.13;;;15.83;68.93
12991;BME280;6560;57.692;11.958;2023-04-21T00:34:35;102522.88;;;15.16;70.64
12991;BME280;6560;57.692;11.958;2023-04-21T00:37:01;102543.19;;;14.55;72.80
12991;BME280;6560;57.692;11.958;2023-04-21T00:39:27;102535.22;;;14.85;71.11
12991;BME280;6560;57.692;11.958;2023-04-21T00:41:52;102540.50;;;14.45;74.78
12991;BME280;6560;57.692;11.958;2023-04-21T00:44:18;102550.00;;;14.22;78.45
12991;BME280;6560;57.692;11.958;2023-04-21T00:46:44;102516.00;;;14.18;78.40
12991;BME280;6560;57.692;11.958;2023-04-21T00:49:09;102468.78;;;14.14;78.69
12991;BME280;6560;57.692;11.958;2023-04-21T00:51:36;102567.53;;;14.30;79.46
12991;BME280;6560;57.692;11.958;2023-04-21T00:54:03;102558.97;;;14.14;80.40
12991;BME280;6560;57.692;11.958;2023-04-21T00:56:31;102440.81;;;13.59;80.94
12991;BME280;6560;57.692;11.958;2023-04-21T00:58:58;102562.91;;;14.38;79.37
12991;BME280;6560;57.692;11.958;2023-04-21T01:01:24;102552.00;;;14.35;78.60
12991;BME280;6560;57.692;11.958;2023-04-21T01:03:50;102547.44;;;14.14;80.58
12991;BME280;6560;57.692;11.958;2023-04-21T01:06:17;102548.22;;;14.42;79.01
12991;BME280;6560;57.692;11.958;2023-04-21T01:08:44;102519.53;;;14.38;78.60
12991;BME280;6560;57.692;11.958;2023-04-21T01:11:11;102392.81;;;13.45;76.96
12991;BME280;6560;57.692;11.958;2023-04-21T01:13:38;102465.53;;;13.78;77.24
12991;BME280;6560;57.692;11.958;2023-04-21T01:16:05;102567.53;;;14.30;79.19
12991;BME280;6560;57.692;11.958;2023-04-21T01:18:32;102382.56;;;15.54;74.53
12991;BME280;6560;57.692;11.958;2023-04-21T01:20:57;102573.47;;;14.57;76.41
12991;BME280;6560;57.692;11.958;2023-04-21T01:23:23;102388.59;;;15.31;73.82
12991;BME280;6560;57.692;11.958;2023-04-21T01:25:49;102581.38;;;14.47;76.96
12991;BME280;6560;57.692;11.958;2023-04-21T01:28:21;102444.00;;;13.26;78.97
12991;BME280;6560;57.692;11.958;2023-04-21T01:30:46;102541.53;;;14.36;78.16
12991;BME280;6560;57.692;11.958;2023-04-21T01:33:22;102398.81;;;13.05;79.27
12991;BME280;6560;57.692;11.958;2023-04-21T01:35:48;102540.38;;;13.46;86.46
12991;BME280;6560;57.692;11.958;2023-04-21T01:38:16;102537.88;;;13.48;85.06
12991;BME280;6560;57.692;11.958;2023-04-21T01:40:47;102555.63;;;13.96;86.73
12991;BME280;6560;57.692;11.958;2023-04-21T01:43:16;102511.72;;;13.32;87.47
12991;BME280;6560;57.692;11.958;2023-04-21T01:48:16;102541.19;;;13.45;89.41
12991;BME280;6560;57.692;11.958;2023-04-21T01:50:42;102551.13;;;13.48;92.48
12991;BME280;6560;57.692;11.958;2023-04-21T01:53:07;102516.84;;;13.31;90.98
12991;BME280;6560;57.692;11.958;2023-04-21T01:55:33;102483.22;;;12.92;93.07
12991;BME280;6560;57.692;11.958;2023-04-21T01:57:58;102501.44;;;13.08;90.84
12991;BME280;6560;57.692;11.958;2023-04-21T02:00:25;102555.28;;;13.36;91.21
12991;BME280;6560;57.692;11.958;2023-04-21T02:02:51;102519.63;;;13.13;90.29
12991;BME280;6560;57.692;11.958;2023-04-21T02:05:18;102544.34;;;13.23;89.43
12991;BME280;6560;57.692;11.958;2023-04-21T02:07:43;102551.22;;;13.21;92.00
12991;BME280;6560;57.692;11.958;2023-04-21T02:10:09;102535.28;;;13.02;93.39
12991;BME280;6560;57.692;11.958;2023-04-21T02:12:35;102487.88;;;12.67;92.05
12991;BME280;6560;57.692;11.958;2023-04-21T02:15:01;102547.94;;;13.71;90.56
12991;BME280;6560;57.692;11.958;2023-04-21T02:17:27;102553.91;;;14.07;86.90
12991;BME280;6560;57.692;11.958;2023-04-21T02:19:52;102550.16;;;13.19;91.45
12991;BME280;6560;57.692;11.958;2023-04-21T02:22:18;102555.94;;;12.87;97.73
12991;BME280;6560;57.692;11.958;2023-04-21T02:24:43;102458.13;;;13.07;93.05
12991;BME280;6560;57.692;11.958;2023-04-21T02:27:09;102542.84;;;13.92;93.83
12991;BME280;6560;57.692;11.958;2023-04-21T02:29:34;102463.66;;;13.77;89.83
12991;BME280;6560;57.692;11.958;2023-04-21T02:32:00;102553.44;;;14.31;90.66
12991;BME280;6560;57.692;11.958;2023-04-21T02:34:25;102551.47;;;14.29;88.82
12991;BME280;6560;57.692;11.958;2023-04-21T02:36:51;102553.88;;;14.36;88.45
12991;BME280;6560;57.692;11.958;2023-04-21T02:39:16;102548.13;;;14.31;88.23
12991;BME280;6560;57.692;11.958;2023-04-21T02:41:42;102536.97;;;14.15;88.48
12991;BME280;6560;57.692;11.958;2023-04-21T02:44:08;102558.03;;;14.04;93.33
12991;BME280;6560;57.692;11.958;2023-04-21T02:46:33;102536.84;;;15.66;86.11
12991;BME280;6560;57.692;11.958;2023-04-21T02:48:59;102539.56;;;14.05;90.72
12991;BME280;6560;57.692;11.958;2023-04-21T02:51:24;102555.53;;;14.15;91.29
12991;BME280;6560;57.692;11.958;2023-04-21T02:53:50;102474.97;;;13.55;92.51
12991;BME280;6560;57.692;11.958;2023-04-21T02:56:15;102552.84;;;14.05;89.79
12991;BME280;6560;57.692;11.958;2023-04-21T02:58:41;102531.28;;;13.82;93.83
12991;BME280;6560;57.692;11.958;2023-04-21T03:01:06;102537.94;;;13.87;90.07
12991;BME280;6560;57.692;11.958;2023-04-21T03:03:32;102370.56;;;12.96;89.57
12991;BME280;6560;57.692;11.958;2023-04-21T03:06:00;102500.69;;;13.56;92.40
12991;BME280;6560;57.692;11.958;2023-04-21T03:08:27;102345.44;;;12.72;92.00
12991;BME280;6560;57.692;11.958;2023-04-21T03:10:52;102483.94;;;13.47;91.28
12991;BME280;6560;57.692;11.958;2023-04-21T03:13:18;102409.81;;;13.10;91.21
12991;BME280;6560;57.692;11.958;2023-04-21T03:15:43;102303.03;;;12.43;91.46
12991;BME280;6560;57.692;11.958;2023-04-21T03:18:09;102396.78;;;12.93;92.93
12991;BME280;6560;57.692;11.958;2023-04-21T03:20:35;102425.56;;;13.08;92.89
12991;BME280;6560;57.692;11.958;2023-04-21T03:23:01;102536.72;;;13.54;95.51
12991;BME280;6560;57.692;11.958;2023-04-21T03:25:26;102440.75;;;12.82;92.53
12991;BME280;6560;57.692;11.958;2023-04-21T03:27:53;102502.56;;;12.83;94.75
12991;BME280;6560;57.692;11.958;2023-04-21T03:30:19;102513.56;;;14.70;91.05
12991;BME280;6560;57.692;11.958;2023-04-21T03:32:45;102535.84;;;12.89;97.48
12991;BME280;6560;57.692;11.958;2023-04-21T03:35:10;102502.72;;;12.65;97.64
12991;BME280;6560;57.692;11.958;2023-04-21T03:37:36;102498.91;;;12.53;100.00
12991;BME280;6560;57.692;11.958;2023-04-21T03:40:02;102523.31;;;12.59;100.00
12991;BME280;6560;57.692;11.958;2023-04-21T03:42:30;102533.47;;;12.73;100.00
12991;BME280;6560;57.692;11.958;2023-04-21T03:44:56;102531.56;;;13.00;100.00
12991;BME280;6560;57.692;11.958;2023-04-21T03:47:25;102422.91;;;14.35;96.32
12991;BME280;6560;57.692;11.958;2023-04-21T03:49:51;102500.81;;;15.07;92.22
12991;BME280;6560;57.692;11.958;2023-04-21T03:52:16;102497.84;;;15.24;88.50
12991;BME280;6560;57.692;11.958;2023-04-21T03:54:41;102527.31;;;13.29;95.69
12991;BME280;6560;57.692;11.958;2023-04-21T03:57:07;102530.56;;;12.89;100.00
12991;BME280;6560;57.692;11.958;2023-04-21T03:59:32;102445.16;;;12.35;100.00
12991;BME280;6560;57.692;11.958;2023-04-21T04:01:58;102530.50;;;12.79;100.00
12991;BME280;6560;57.692;11.958;2023-04-21T04:04:23;102400.56;;;12.03;100.00
12991;BME280;6560;57.692;11.958;2023-04-21T04:06:49;102514.78;;;14.84;93.95
12991;BME280;6560;57.692;11.958;2023-04-21T04:09:14;102486.44;;;12.98;100.00
12991;BME280;6560;57.692;11.958;2023-04-21T04:11:40;102467.22;;;12.63;100.00
12991;BME280;6560;57.692;11.958;2023-04-21T04:14:05;102523.03;;;12.94;100.00
12991;BME280;6560;57.692;11.958;2023-04-21T04:16:33;102519.25;;;13.00;100.00
12991;BME280;6560;57.692;11.958;2023-04-21T04:18:58;102451.34;;;12.63;100.00
12991;BME280;6560;57.692;11.958;2023-04-21T04:21:24;102500.50;;;12.89;100.00
12991;BME280;6560;57.692;11.958;2023-04-21T04:23:51;102518.88;;;13.62;100.00
12991;BME280;6560;57.692;11.958;2023-04-21T04:26:16;102467.78;;;13.44;97.61
12991;BME280;6560;57.692;11.958;2023-04-21T04:28:43;102516.03;;;13.79;97.20
12991;BME280;6560;57.692;11.958;2023-04-21T04:31:08;102519.44;;;13.68;96.84
12991;BME280;6560;57.692;11.958;2023-04-21T04:33:34;102421.06;;;13.07;96.90
12991;BME280;6560;57.692;11.958;2023-04-21T04:35:59;102460.38;;;12.84;99.82
12991;BME280;6560;57.692;11.958;2023-04-21T04:38:25;102520.66;;;13.24;100.00
12991;BME280;6560;57.692;11.958;2023-04-21T04:40:53;102524.59;;;13.38;100.00
12991;BME280;6560;57.692;11.958;2023-04-21T04:43:19;102511.22;;;13.46;99.91
12991;BME280;6560;57.692;11.958;2023-04-21T04:45:45;102353.75;;;12.66;99.45
12991;BME280;6560;57.692;11.958;2023-04-21T04:48:10;102393.19;;;12.92;99.46
12991;BME280;6560;57.692;11.958;2023-04-21T04:50:36;102515.44;;;13.63;100.00
12991;BME280;6560;57.692;11.958;2023-04-21T04:53:01;102431.59;;;13.16;100.00
12991;BME280;6560;57.692;11.958;2023-04-21T04:55:27;102447.22;;;13.42;100.00
12991;BME280;6560;57.692;11.958;2023-04-21T04:57:52;102497.19;;;13.76;100.00
12991;BME280;6560;57.692;11.958;2023-04-21T05:00:22;102513.34;;;14.08;100.00
12991;BME280;6560;57.692;11.958;2023-04-21T05:02:48;102499.16;;;14.08;100.00
12991;BME280;6560;57.692;11.958;2023-04-21T05:05:13;102460.38;;;14.49;98.66
12991;BME280;6560;57.692;11.958;2023-04-21T05:07:38;102432.75;;;14.67;96.75
12991;BME280;6560;57.692;11.958;2023-04-21T05:10:04;102461.13;;;14.17;99.41
12991;BME280;6560;57.692;11.958;2023-04-21T05:12:30;102506.97;;;14.06;100.00
12991;BME280;6560;57.692;11.958;2023-04-21T05:14:58;102447.50;;;13.84;100.00
12991;BME280;6560;57.692;11.958;2023-04-21T05:17:24;102498.84;;;14.05;100.00
12991;BME280;6560;57.692;11.958;2023-04-21T05:19:50;102477.72;;;14.35;100.00
12991;BME280;6560;57.692;11.958;2023-04-21T05:22:15;102473.34;;;14.35;100.00
12991;BME280;6560;57.692;11.958;2023-04-21T05:24:41;102465.25;;;14.85;100.00
12991;BME280;6560;57.692;11.958;2023-04-21T05:27:08;102457.50;;;15.82;99.57
12991;BME280;6560;57.692;11.958;2023-04-21T05:29:33;102476.28;;;17.05;96.73
12991;BME280;6560;57.692;11.958;2023-04-21T05:31:59;102418.03;;;18.06;91.54
12991;BME280;6560;57.692;11.958;2023-04-21T05:34:25;102394.59;;;19.03;84.35
12991;BME280;6560;57.692;11.958;2023-04-21T05:36:51;102344.47;;;21.12;83.92
12991;BME280;6560;57.692;11.958;2023-04-21T05:39:16;102447.59;;;22.73;72.99
12991;BME280;6560;57.692;11.958;2023-04-21T05:41:42;102428.09;;;23.28;76.06
12991;BME280;6560;57.692;11.958;2023-04-21T05:44:07;102403.25;;;23.52;73.88
12991;BME280;6560;57.692;11.958;2023-04-21T05:46:33;102388.09;;;23.91;70.64
12991;BME280;6560;57.692;11.958;2023-04-21T05:48:59;102445.22;;;25.60;68.02
12991;BME280;6560;57.692;11.958;2023-04-21T05:51:26;102376.47;;;24.89;64.58
12991;BME280;6560;57.692;11.958;2023-04-21T05:53:52;102432.50;;;24.95;63.13
12991;BME280;6560;57.692;11.958;2023-04-21T05:56:25;102369.66;;;24.78;58.90
12991;BME280;6560;57.692;11.958;2023-04-21T05:58:50;102361.94;;;25.29;61.16
12991;BME280;6560;57.692;11.958;2023-04-21T06:01:16;102433.00;;;25.69;58.41
12991;BME280;6560;57.692;11.958;2023-04-21T06:03:41;102371.75;;;25.92;57.39
12991;BME280;6560;57.692;11.958;2023-04-21T06:06:07;102376.31;;;26.41;57.84
12991;BME280;6560;57.692;11.958;2023-04-21T06:08:34;102418.28;;;26.77;57.74
12991;BME280;6560;57.692;11.958;2023-04-21T06:11:00;102349.22;;;27.70;54.82
12991;BME280;6560;57.692;11.958;2023-04-21T06:13:25;102374.88;;;27.82;52.31
12991;BME280;6560;57.692;11.958;2023-04-21T06:15:53;102419.00;;;28.66;52.23
12991;BME280;6560;57.692;11.958;2023-04-21T06:18:18;102387.72;;;29.86;50.13
12991;BME280;6560;57.692;11.958;2023-04-21T06:20:50;102377.72;;;30.69;42.65
12991;BME280;6560;57.692;11.958;2023-04-21T06:23:16;102368.47;;;32.31;44.92
12991;BME280;6560;57.692;11.958;2023-04-21T06:25:42;102400.25;;;33.05;43.08
12991;BME280;6560;57.692;11.958;2023-04-21T06:28:07;102315.84;;;33.46;41.22
12991;BME280;6560;57.692;11.958;2023-04-21T06:30:33;102392.88;;;34.19;34.80
12991;BME280;6560;57.692;11.958;2023-04-21T06:32:58;102366.88;;;33.44;34.34
12991;BME280;6560;57.692;11.958;2023-04-21T06:35:24;102356.84;;;31.77;36.09
12991;BME280;6560;57.692;11.958;2023-04-21T06:37:50;102314.63;;;30.96;38.59
12991;BME280;6560;57.692;11.958;2023-04-21T06:40:15;102364.50;;;30.91;39.19
12991;BME280;6560;57.692;11.958;2023-04-21T06:42:41;102371.78;;;32.83;36.82
12991;BME280;6560;57.692;11.958;2023-04-21T06:45:07;102373.78;;;31.56;35.80
12991;BME280;6560;57.692;11.958;2023-04-21T06:47:39;102252.66;;;30.83;34.68
12991;BME280;6560;57.692;11.958;2023-04-21T06:50:12;102369.13;;;31.49;34.57
12991;BME280;6560;57.692;11.958;2023-04-21T06:52:37;102376.50;;;31.56;35.32
12991;BME280;6560;57.692;11.958;2023-04-21T06:55:03;102367.81;;;31.24;34.91
12991;BME280;6560;57.692;11.958;2023-04-21T06:57:28;102358.41;;;30.14;34.65
12991;BME280;6560;57.692;11.958;2023-04-21T06:59:54;102364.09;;;30.24;35.26
12991;BME280;6560;57.692;11.958;2023-04-21T07:02:20;102345.34;;;29.96;34.75
12991;BME280;6560;57.692;11.958;2023-04-21T07:04:46;102320.56;;;30.71;37.01
12991;BME280;6560;57.692;11.958;2023-04-21T07:07:17;102299.69;;;30.26;35.69
12991;BME280;6560;57.692;11.958;2023-04-21T07:09:43;102353.69;;;30.97;36.90
12991;BME280;6560;57.692;11.958;2023-04-21T07:12:12;102339.59;;;30.69;36.54
12991;BME280;6560;57.692;11.958;2023-04-21T07:14:37;102317.09;;;30.81;36.58
12991;BME280;6560;57.692;11.958;2023-04-21T07:17:03;102354.44;;;30.88;36.52
12991;BME280;6560;57.692;11.958;2023-04-21T07:19:28;102338.31;;;30.05;34.67
12991;BME280;6560;57.692;11.958;2023-04-21T07:21:54;102270.06;;;30.91;36.13
12991;BME280;6560;57.692;11.958;2023-04-21T07:24:19;102302.00;;;32.26;34.25
12991;BME280;6560;57.692;11.958;2023-04-21T07:26:46;102300.06;;;31.50;34.92
12991;BME280;6560;57.692;11.958;2023-04-21T07:29:11;102249.63;;;31.20;34.94
12991;BME280;6560;57.692;11.958;2023-04-21T07:31:37;102340.16;;;32.23;34.28
12991;BME280;6560;57.692;11.958;2023-04-21T07:34:03;102257.03;;;31.29;32.23
12991;BME280;6560;57.692;11.958;2023-04-21T07:36:28;102275.53;;;31.53;33.67
12991;BME280;6560;57.692;11.958;2023-04-21T07:39:00;102251.97;;;31.56;32.77
12991;BME280;6560;57.692;11.958;2023-04-21T07:41:38;102317.47;;;32.27;32.56
12991;BME280;6560;57.692;11.958;2023-04-21T07:44:04;102331.75;;;32.87;31.59
12991;BME280;6560;57.692;11.958;2023-04-21T07:46:30;102278.78;;;32.68;31.45
12991;BME280;6560;57.692;11.958;2023-04-21T07:48:56;102325.56;;;33.07;30.83
12991;BME280;6560;57.692;11.958;2023-04-21T07:51:22;102281.03;;;33.20;30.40
12991;BME280;6560;57.692;11.958;2023-04-21T07:53:48;102298.06;;;32.88;30.32
12991;BME280;6560;57.692;11.958;2023-04-21T07:56:15;102312.91;;;32.26;29.85
12991;BME280;6560;57.692;11.958;2023-04-21T07:58:42;102326.50;;;32.23;30.36
12991;BME280;6560;57.692;11.958;2023-04-21T08:01:08;102298.25;;;33.12;29.94
12991;BME280;6560;57.692;11.958;2023-04-21T08:03:34;102318.06;;;32.02;30.26
12991;BME280;6560;57.692;11.958;2023-04-21T08:06:00;102319.94;;;31.44;29.80
12991;BME280;6560;57.692;11.958;2023-04-21T08:08:26;102324.88;;;31.68;30.54
12991;BME280;6560;57.692;11.958;2023-04-21T08:10:53;102314.09;;;31.17;30.51
12991;BME280;6560;57.692;11.958;2023-04-21T08:13:18;102315.78;;;31.09;29.54
12991;BME280;6560;57.692;11.958;2023-04-21T08:15:45;102315.97;;;31.21;29.69
12991;BME280;6560;57.692;11.958;2023-04-21T08:18:11;102242.22;;;31.10;29.85
12991;BME280;6560;57.692;11.958;2023-04-21T08:20:36;102224.56;;;30.36;29.48
12991;BME280;6560;57.692;11.958;2023-04-21T08:23:02;102312.28;;;31.19;29.96
12991;BME280;6560;57.692;11.958;2023-04-21T08:25:28;102304.13;;;31.19;29.40
12991;BME280;6560;57.692;11.958;2023-04-21T08:27:53;102294.16;;;30.68;29.39
12991;BME280;6560;57.692;11.958;2023-04-21T08:30:19;102285.94;;;30.17;29.61
12991;BME280;6560;57.692;11.958;2023-04-21T08:32:46;102164.91;;;29.11;29.34
12991;BME280;6560;57.692;11.958;2023-04-21T08:35:11;102299.75;;;28.73;30.18
12991;BME280;6560;57.692;11.958;2023-04-21T08:37:41;102185.72;;;28.37;30.42
12991;BME280;6560;57.692;11.958;2023-04-21T08:40:08;102269.34;;;29.24;29.89
12991;BME280;6560;57.692;11.958;2023-04-21T08:42:40;102148.63;;;28.03;29.81
12991;BME280;6560;57.692;11.958;2023-04-21T08:45:29;102282.78;;;27.85;30.13
12991;BME280;6560;57.692;11.958;2023-04-21T08:47:56;102300.38;;;28.63;30.18
12991;BME280;6560;57.692;11.958;2023-04-21T08:50:28;102283.84;;;28.87;29.73
12991;BME280;6560;57.692;11.958;2023-04-21T08:52:57;102291.84;;;28.81;29.57
12991;BME280;6560;57.692;11.958;2023-04-21T08:55:28;102295.72;;;28.58;29.51
12991;BME280;6560;57.692;11.958;2023-04-21T08:57:54;102293.03;;;27.96;30.63
12991;BME280;6560;57.692;11.958;2023-04-21T09:00:20;102259.22;;;27.24;30.36
12991;BME280;6560;57.692;11.958;2023-04-21T09:02:57;102292.22;;;27.12;30.94
12991;BME280;6560;57.692;11.958;2023-04-21T09:05:28;102230.72;;;26.81;30.84
12991;BME280;6560;57.692;11.958;2023-04-21T09:08:14;102286.53;;;27.31;30.79
12991;BME280;6560;57.692;11.958;2023-04-21T09:10:47;102225.69;;;26.40;31.07
12991;BME280;6560;57.692;11.958;2023-04-21T09:13:13;102254.94;;;26.50;31.56
12991;BME280;6560;57.692;11.958;2023-04-21T09:15:44;102255.88;;;26.27;31.46
12991;BME280;6560;57.692;11.958;2023-04-21T09:18:13;102283.00;;;26.28;31.65
12991;BME280;6560;57.692;11.958;2023-04-21T09:20:39;102263.16;;;26.28;31.54
12991;BME280;6560;57.692;11.958;2023-04-21T09:23:05;102244.41;;;26.59;31.87
12991;BME280;6560;57.692;11.958;2023-04-21T09:25:33;102271.69;;;26.90;31.47
12991;BME280;6560;57.692;11.958;2023-04-21T09:28:00;102220.63;;;26.49;31.96
12991;BME280;6560;57.692;11.958;2023-04-21T09:30:30;102262.00;;;26.46;32.00
12991;BME280;6560;57.692;11.958;2023-04-21T09:32:59;102233.69;;;26.11;32.01
12991;BME280;6560;57.692;11.958;2023-04-21T09:35:31;102258.56;;;26.77;32.07
12991;BME280;6560;57.692;11.958;2023-04-21T09:38:09;102272.56;;;26.64;32.33
12991;BME280;6560;57.692;11.958;2023-04-21T09:40:35;102260.53;;;26.56;33.24
12991;BME280;6560;57.692;11.958;2023-04-21T09:43:01;102274.44;;;26.41;33.35
12991;BME280;6560;57.692;11.958;2023-04-21T09:45:49;102254.31;;;26.33;33.56
12991;BME280;6560;57.692;11.958;2023-04-21T09:48:16;102227.41;;;26.12;33.35
12991;BME280;6560;57.692;11.958;2023-04-21T09:50:44;102149.22;;;25.44;34.16
12991;BME280;6560;57.692;11.958;2023-04-21T09:53:15;102235.25;;;26.05;34.40
12991;BME280;6560;57.692;11.958;2023-04-21T09:55:41;102155.53;;;25.45;34.94
12991;BME280;6560;57.692;11.958;2023-04-21T09:58:08;102239.44;;;25.71;35.97
12991;BME280;6560;57.692;11.958;2023-04-21T10:00:38;102243.16;;;25.75;35.81
12991;BME280;6560;57.692;11.958;2023-04-21T10:03:04;102190.41;;;25.38;36.08
12991;BME280;6560;57.692;11.958;2023-04-21T10:05:35;102225.31;;;25.80;35.16
12991;BME280;6560;57.692;11.958;2023-04-21T10:08:00;102171.59;;;24.73;37.12
12991;BME280;6560;57.692;11.958;2023-04-21T10:10:28;102113.94;;;24.49;37.22
12991;BME280;6560;57.692;11.958;2023-04-21T10:12:57;102215.41;;;25.11;37.34
12991;BME280;6560;57.692;11.958;2023-04-21T10:15:39;102219.38;;;24.55;37.62
12991;BME280;6560;57.692;11.958;2023-04-21T10:18:23;102106.00;;;23.88;37.78
12991;BME280;6560;57.692;11.958;2023-04-21T10:23:38;102155.00;;;24.00;37.06
12991;BME280;6560;57.692;11.958;2023-04-21T10:26:23;102177.00;;;23.69;37.77
12991;BME280;6560;57.692;11.958;2023-04-21T10:29:06;102215.59;;;23.89;38.19
12991;BME280;6560;57.692;11.958;2023-04-21T10:31:34;102218.84;;;24.01;37.44
12991;BME280;6560;57.692;11.958;2023-04-21T10:36:32;102200.97;;;23.84;37.56
12991;BME280;6560;57.692;11.958;2023-04-21T10:39:03;102137.03;;;23.21;37.49
12991;BME280;6560;57.692;11.958;2023-04-21T10:41:32;102204.25;;;24.17;36.70
12991;BME280;6560;57.692;11.958;2023-04-21T10:44:17;102145.88;;;24.38;36.78
12991;BME280;6560;57.692;11.958;2023-04-21T10:46:50;102083.19;;;24.44;36.38
12991;BME280;6560;57.692;11.958;2023-04-21T10:49:26;102188.13;;;25.03;37.35
12991;BME280;6560;57.692;11.958;2023-04-21T10:57:18;102093.16;;;24.24;37.63
12991;BME280;6560;57.692;11.958;2023-04-21T10:59:46;102174.72;;;24.84;37.39
12991;BME280;6560;57.692;11.958;2023-04-21T11:02:23;102168.78;;;24.48;39.62
12991;BME280;6560;57.692;11.958;2023-04-21T11:04:50;102174.75;;;24.41;39.14
12991;BME280;6560;57.692;11.958;2023-04-21T11:07:22;102167.53;;;24.62;39.11
12991;BME280;6560;57.692;11.958;2023-04-21T11:10:06;102149.19;;;23.70;40.35
12991;BME280;6560;57.692;11.958;2023-04-21T11:12:34;102092.56;;;23.48;40.41
12991;BME280;6560;57.692;11.958;2023-04-21T11:15:19;102158.84;;;23.65;41.31
12991;BME280;6560;57.692;11.958;2023-04-21T11:17:44;102101.38;;;23.45;40.97
12991;BME280;6560;57.692;11.958;2023-04-21T11:20:14;101965.16;;;22.88;41.09
12991;BME280;6560;57.692;11.958;2023-04-21T11:22:40;102132.06;;;24.96;40.40
12991;BME280;6560;57.692;11.958;2023-04-21T11:25:16;102158.56;;;23.59;42.42
12991;BME280;6560;57.692;11.958;2023-04-21T11:27:54;102154.16;;;23.42;42.56
12991;BME280;6560;57.692;11.958;2023-04-21T11:30:29;102133.19;;;23.35;42.82
12991;BME280;6560;57.692;11.958;2023-04-21T11:32:56;102129.69;;;23.17;43.08
12991;BME280;6560;57.692;11.958;2023-04-21T11:37:54;102138.13;;;23.45;43.74
12991;BME280;6560;57.692;11.958;2023-04-21T11:40:21;102140.19;;;23.31;43.92
12991;BME280;6560;57.692;11.958;2023-04-21T11:42:50;102042.38;;;23.10;43.82
12991;BME280;6560;57.692;11.958;2023-04-21T11:45:19;101922.41;;;22.56;43.64
12991;BME280;6560;57.692;11.958;2023-04-21T11:47:46;102105.13;;;23.89;43.47
12991;BME280;6560;57.692;11.958;2023-04-21T11:50:29;102109.78;;;23.72;44.60
12991;BME280;6560;57.692;11.958;2023-04-21T11:52:55;102104.72;;;23.80;44.43
12991;BME280;6560;57.692;11.958;2023-04-21T11:55:21;101893.03;;;22.60;43.59
12991;BME280;6560;57.692;11.958;2023-04-21T11:57:48;102145.59;;;24.11;43.00
12991;BME280;6560;57.692;11.958;2023-04-21T12:00:15;101977.41;;;23.63;42.73
12991;BME280;6560;57.692;11.958;2023-04-21T12:02:42;102005.38;;;23.88;42.63
12991;BME280;6560;57.692;11.958;2023-04-21T12:05:13;102096.59;;;24.20;42.23
12991;BME280;6560;57.692;11.958;2023-04-21T12:07:45;102088.75;;;24.26;42.34
12991;BME280;6560;57.692;11.958;2023-04-21T12:10:18;102109.34;;;24.24;41.98
12991;BME280;6560;57.692;11.958;2023-04-21T12:15:15;102089.75;;;24.50;41.54
12991;BME280;6560;57.692;11.958;2023-04-21T12:17:49;102020.03;;;24.16;41.60
12991;BME280;6560;57.692;11.958;2023-04-21T12:20:21;102083.19;;;24.44;41.29
12991;BME280;6560;57.692;11.958;2023-04-21T12:22:48;102082.91;;;23.74;42.64
12991;BME280;6560;57.692;11.958;2023-04-21T12:25:14;101931.94;;;22.88;42.85
12991;BME280;6560;57.692;11.958;2023-04-21T12:27:50;102044.50;;;23.38;43.00
12991;BME280;6560;57.692;11.958;2023-04-21T12:30:16;102041.25;;;23.66;42.61
12991;BME280;6560;57.692;11.958;2023-04-21T12:32:42;102084.00;;;23.58;43.38
12991;BME280;6560;57.692;11.958;2023-04-21T12:35:08;101800.00;;;21.85;43.12
12991;BME280;6560;57.692;11.958;2023-04-21T12:37:33;102051.38;;;23.31;43.59
12991;BME280;6560;57.692;11.958;2023-04-21T12:39:59;102068.31;;;23.48;43.45
12991;BME280;6560;57.692;11.958;2023-04-21T12:42:24;102010.53;;;23.21;42.11
12991;BME280;6560;57.692;11.958;2023-04-21T12:44:50;102039.25;;;23.01;41.02
12991;BME280;6560;57.692;11.958;2023-04-21T12:47:16;102071.63;;;23.02;42.11
12991;BME280;6560;57.692;11.958;2023-04-21T12:49:42;102050.91;;;23.21;42.17
12991;BME280;6560;57.692;11.958;2023-04-21T12:52:08;102061.78;;;23.03;42.99
12991;BME280;6560;57.692;11.958;2023-04-21T12:54:34;101996.78;;;22.94;42.37
12991;BME280;6560;57.692;11.958;2023-04-21T12:56:59;102057.28;;;23.43;42.37
12991;BME280;6560;57.692;11.958;2023-04-21T12:59:25;101954.59;;;22.93;43.63
12991;BME280;6560;57.692;11.958;2023-04-21T13:01:51;101977.63;;;23.07;43.82
12991;BME280;6560;57.692;11.958;2023-04-21T13:04:17;101963.78;;;22.79;43.48
12991;BME280;6560;57.692;11.958;2023-04-21T13:06:42;102049.53;;;23.30;42.94
12991;BME280;6560;57.692;11.958;2023-04-21T13:09:08;102024.53;;;23.33;42.61